Pagrindinis puslapis
METAR-TAF:

METAR-TAF

Oro uostai :

Liuleo, Švedija

platuma: 65-33N, ilguma: 022-08E, Aukštis: 17 m

Dabartinis oras

Ataskaita buvo paskelbta 36 minutes, ne 09:20 UTC
Vėjas 5 kt iš Rytų/Pietryčių, svyruoja nuo Rytų/Šiaurės Rytų ir Pietryčių
Temperatūra 8°C
Drėgmė 93%
Slėgis 1010 hPa
Matomumas 10 km arba daugiau
Su prošvaistėmis ne aukštis 600 ft

METAR: ESPA 170920Z 11005KT 070V130 9999 BKN006 08/07 Q1010

Laikas: 11:56 (09:56 UTC)

Prognozė

Ataskaita buvo paskelbta 36 minutes, ne 09:20 UTC
Prognozė galioja nuo 17 metu 09 UTC su 17 metu 18 UTC
Vėjas 4 kt iš Rytų
Matomumas: 6000 m
Apsiniaukę ne aukštis 300 ft
Laikinai
nuo 17 metu 09 UTC su 17 metu 18 UTC
Išsisklaidę debesys ne aukštis 600 ft
Laikinai
nuo 17 metu 09 UTC su 17 metu 10 UTC
Matomumas: 0300 m
ne aukštis 200 ft
rūkas
Tapsmas
nuo 17 metu 10 UTC su 17 metu 12 UTC
Matomumas 10 km arba daugiau
Su prošvaistėmis ne aukštis 600 ft

TAF: ESPA 170920Z 1709/1718 09004KT 6000 OVC003 TEMPO 1709/1718 SCT006 TEMPO 1709/1710 0300 FG VV002 BECMG 1710/1712 9999 BKN006 RMK MIL

Orai ataskaitas ir orų prognozės (METAR, TAF).

turimą stotys yra geltonos ir raudonos taškus žemėlapyje.

Perkelti pele per norėdami pamatyti stoties vardą.

Tada spustelėkite, norėdami matyti oro stebėjimo ir prognozės.

Norėdami pakeisti žemėlapį: spustelėkite ant žalios mygtukų su juodo kryžiaus žemyn,; žalią mygtuką su brūkšneliu, jei norite nutolinti; arba žalių rodyklių gretimoms žemėlapius.


METAR-TAF: